Time;durP1;ratioP1;P1;durP2;ratioP2;P2;SDS_P1;SDS_P2;PMS_P1;PMS_P2;Temp;Humidity;BMP_temperature;BMP_pressure;BME280_temperature;BME280_humidity;BME280_pressure;Samples;Min_cycle;Max_cycle;Signal;HPM_P1;HPM_P2
2021/11/14 00:00:01;;;;;;;24.83;15.95;;;;;;;;;;5056313;28;20028;-78
2021/11/14 00:02:27;;;;;;;21.38;15.75;;;;;;;;;;5053634;28;20108;-79
2021/11/14 00:04:53;;;;;;;21.58;15.43;;;;;;;;;;5053286;28;20112;-79
2021/11/14 00:07:19;;;;;;;22.67;16.05;;;;;;;;;;5053933;28;20107;-79
2021/11/14 00:09:46;;;;;;;22.27;15.07;;;;;;;;;;5058700;28;20029;-79
2021/11/14 00:12:12;;;;;;;25.33;16.40;;;;;;;;;;5053342;28;20033;-79
2021/11/14 00:14:38;;;;;;;20.60;14.90;;;;;;;;;;5052667;28;20063;-78
2021/11/14 00:17:04;;;;;;;25.40;15.88;;;;;;;;;;5053209;28;20025;-78
2021/11/14 00:19:30;;;;;;;28.15;16.00;;;;;;;;;;5068279;28;20512;-80
2021/11/14 00:21:57;;;;;;;24.48;16.63;;;;;;;;;;5073455;28;20036;-79
2021/11/14 00:24:23;;;;;;;20.73;15.15;;;;;;;;;;5055193;28;20083;-79
2021/11/14 00:26:49;;;;;;;21.27;15.10;;;;;;;;;;5035592;28;20033;-76
2021/11/14 00:29:15;;;;;;;18.95;13.90;;;;;;;;;;5067235;28;20396;-77
2021/11/14 00:31:42;;;;;;;22.60;16.30;;;;;;;;;;5072115;28;20040;-77
2021/11/14 00:34:08;;;;;;;24.48;15.45;;;;;;;;;;5054572;28;20025;-77
2021/11/14 00:36:38;;;;;;;21.30;14.77;;;;;;;;;;5055104;28;20025;-77
2021/11/14 00:39:06;;;;;;;21.02;14.68;;;;;;;;;;5061986;28;20020;-78
2021/11/14 00:41:32;;;;;;;20.40;14.98;;;;;;;;;;5053904;28;20495;-78
2021/11/14 00:43:58;;;;;;;22.90;15.30;;;;;;;;;;5054118;28;20029;-78
2021/11/14 00:46:24;;;;;;;22.45;15.13;;;;;;;;;;5071486;28;20035;-77
2021/11/14 00:48:51;;;;;;;22.23;15.38;;;;;;;;;;5060128;28;20444;-78
2021/11/14 00:51:19;;;;;;;23.73;15.70;;;;;;;;;;5052028;28;20075;-76
2021/11/14 00:53:46;;;;;;;24.67;15.20;;;;;;;;;;5058483;28;20029;-77
2021/11/14 00:56:12;;;;;;;24.50;16.08;;;;;;;;;;5061671;28;20039;-79
2021/11/14 00:58:38;;;;;;;24.90;15.52;;;;;;;;;;5071805;28;20016;-77
2021/11/14 01:01:04;;;;;;;19.60;15.35;;;;;;;;;;5052319;28;20477;-78
2021/11/14 01:03:30;;;;;;;25.13;15.75;;;;;;;;;;5051835;28;20052;-78
2021/11/14 01:05:56;;;;;;;23.65;14.50;;;;;;;;;;5051090;28;20025;-77
2021/11/14 01:08:22;;;;;;;22.85;14.43;;;;;;;;;;5057819;28;20082;-77
2021/11/14 01:10:51;;;;;;;21.70;15.07;;;;;;;;;;5071302;28;20032;-77
2021/11/14 01:13:18;;;;;;;21.58;14.70;;;;;;;;;;5053658;28;20032;-77
2021/11/14 01:15:44;;;;;;;22.92;15.73;;;;;;;;;;5043343;28;20083;-77
2021/11/14 01:18:11;;;;;;;23.40;14.93;;;;;;;;;;5070842;28;20107;-78
2021/11/14 01:20:39;;;;;;;20.85;15.10;;;;;;;;;;5068468;28;20032;-75
2021/11/14 01:23:06;;;;;;;22.25;14.25;;;;;;;;;;5064084;28;20029;-77
2021/11/14 01:25:32;;;;;;;21.00;14.45;;;;;;;;;;5050725;28;20044;-77
2021/11/14 01:27:58;;;;;;;19.48;13.15;;;;;;;;;;5033608;28;20029;-77
2021/11/14 01:30:26;;;;;;;19.63;13.68;;;;;;;;;;5051527;28;20033;-77
2021/11/14 01:32:53;;;;;;;16.35;11.75;;;;;;;;;;5051377;28;20057;-77
2021/11/14 01:35:20;;;;;;;15.63;12.23;;;;;;;;;;5050795;28;20029;-77
2021/11/14 01:37:47;;;;;;;16.90;11.43;;;;;;;;;;5051576;28;20083;-76
2021/11/14 01:40:15;;;;;;;16.58;10.65;;;;;;;;;;5039525;28;20029;-78
2021/11/14 01:42:41;;;;;;;16.00;10.65;;;;;;;;;;5051497;28;20021;-79
2021/11/14 01:45:08;;;;;;;16.70;10.90;;;;;;;;;;5050784;28;20025;-78
2021/11/14 01:47:34;;;;;;;14.43;9.95;;;;;;;;;;5051644;28;20041;-76
2021/11/14 01:50:00;;;;;;;13.25;9.95;;;;;;;;;;5033419;28;20058;-78
2021/11/14 01:52:29;;;;;;;13.52;9.88;;;;;;;;;;5053805;28;20077;-77
2021/11/14 01:54:55;;;;;;;13.20;9.52;;;;;;;;;;5070787;28;20021;-77
2021/11/14 01:57:22;;;;;;;13.48;9.65;;;;;;;;;;5071098;28;20032;-78
2021/11/14 01:59:48;;;;;;;13.75;10.20;;;;;;;;;;5052503;28;20119;-77
2021/11/14 02:02:14;;;;;;;14.00;10.00;;;;;;;;;;5071354;28;20028;-78
2021/11/14 02:04:41;;;;;;;16.75;11.18;;;;;;;;;;5070472;28;20025;-78
2021/11/14 02:07:08;;;;;;;16.30;11.55;;;;;;;;;;5060270;28;20032;-76
2021/11/14 02:09:35;;;;;;;17.23;12.52;;;;;;;;;;5033308;28;20047;-78
2021/11/14 02:12:02;;;;;;;16.63;13.13;;;;;;;;;;5050912;28;20079;-78
2021/11/14 02:14:28;;;;;;;18.95;14.85;;;;;;;;;;5032856;28;20049;-78
2021/11/14 02:16:54;;;;;;;17.25;14.30;;;;;;;;;;5051128;28;20056;-79
2021/11/14 02:19:20;;;;;;;19.80;14.88;;;;;;;;;;5092052;22;20071;-75
2021/11/14 02:21:46;;;;;;;18.27;14.18;;;;;;;;;;5094895;28;20066;-76
2021/11/14 02:24:12;;;;;;;19.52;14.18;;;;;;;;;;5094826;28;20020;-74
2021/11/14 02:26:38;;;;;;;18.27;13.50;;;;;;;;;;5095190;28;20024;-78
2021/11/14 02:29:04;;;;;;;19.13;14.45;;;;;;;;;;5098076;28;20077;-79
2021/11/14 02:31:30;;;;;;;18.77;13.77;;;;;;;;;;5097850;28;20389;-79
2021/11/14 02:33:58;;;;;;;19.02;14.75;;;;;;;;;;5097799;28;20088;-77
2021/11/14 02:36:24;;;;;;;18.27;13.23;;;;;;;;;;5097692;28;20099;-79
2021/11/14 02:38:50;;;;;;;19.10;13.40;;;;;;;;;;5091288;28;20016;-79
2021/11/14 02:41:16;;;;;;;16.92;13.27;;;;;;;;;;5088919;28;20028;-78
2021/11/14 02:43:44;;;;;;;18.23;13.40;;;;;;;;;;5095615;28;20036;-76
2021/11/14 02:46:10;;;;;;;20.23;14.00;;;;;;;;;;5094001;28;20108;-76
2021/11/14 02:48:37;;;;;;;16.73;13.88;;;;;;;;;;5088920;28;20028;-77
2021/11/14 02:51:06;;;;;;;15.95;12.90;;;;;;;;;;5074157;28;20040;-77
2021/11/14 02:53:32;;;;;;;16.88;13.60;;;;;;;;;;5074011;28;20095;-77
2021/11/14 02:55:58;;;;;;;20.92;13.20;;;;;;;;;;5082487;28;20031;-75
2021/11/14 02:58:25;;;;;;;17.90;14.38;;;;;;;;;;5089888;28;20036;-76
2021/11/14 03:00:57;;;;;;;20.50;14.38;;;;;;;;;;5075512;28;20032;-77
2021/11/14 03:03:24;;;;;;;21.42;15.13;;;;;;;;;;5074826;28;20158;-76
2021/11/14 03:05:50;;;;;;;17.67;15.15;;;;;;;;;;5085130;28;20055;-76
2021/11/14 03:08:16;;;;;;;16.83;14.15;;;;;;;;;;5095459;28;20028;-77
2021/11/14 03:10:42;;;;;;;19.85;14.05;;;;;;;;;;5075113;28;20029;-76
2021/11/14 03:13:11;;;;;;;19.85;14.98;;;;;;;;;;5074573;28;20027;-76
2021/11/14 03:15:38;;;;;;;17.48;14.70;;;;;;;;;;5075956;28;20021;-77
2021/11/14 03:18:05;;;;;;;22.00;17.15;;;;;;;;;;5056711;28;20408;-76
2021/11/14 03:20:31;;;;;;;20.90;16.95;;;;;;;;;;5089984;28;20071;-77
2021/11/14 03:22:57;;;;;;;21.48;14.63;;;;;;;;;;5087809;28;20033;-76
2021/11/14 03:25:24;;;;;;;17.92;15.23;;;;;;;;;;5073538;28;20028;-76
2021/11/14 03:27:51;;;;;;;16.10;14.15;;;;;;;;;;5074079;28;20032;-76
2021/11/14 03:30:17;;;;;;;20.17;15.18;;;;;;;;;;5074608;28;20036;-76
2021/11/14 03:32:43;;;;;;;17.80;14.45;;;;;;;;;;5056283;28;20033;-77
2021/11/14 03:35:09;;;;;;;18.48;14.30;;;;;;;;;;5073586;28;20036;-77
2021/11/14 03:37:35;;;;;;;18.92;14.75;;;;;;;;;;5055692;28;20016;-76
2021/11/14 03:40:04;;;;;;;19.05;14.57;;;;;;;;;;5091906;28;20035;-77
2021/11/14 03:42:30;;;;;;;17.23;14.82;;;;;;;;;;5094003;28;20016;-77
2021/11/14 03:44:56;;;;;;;20.98;15.98;;;;;;;;;;5089319;28;20059;-77
2021/11/14 03:47:22;;;;;;;18.75;15.13;;;;;;;;;;5073756;28;20397;-77
2021/11/14 03:49:48;;;;;;;18.65;14.13;;;;;;;;;;5093685;28;20039;-77
2021/11/14 03:52:14;;;;;;;17.90;14.02;;;;;;;;;;5093111;28;20032;-77
2021/11/14 03:54:40;;;;;;;18.10;14.75;;;;;;;;;;5073225;28;20773;-77
2021/11/14 03:57:07;;;;;;;23.95;15.55;;;;;;;;;;5074519;28;20054;-77
2021/11/14 03:59:33;;;;;;;19.98;15.35;;;;;;;;;;5086441;28;20032;-76
2021/11/14 04:02:00;;;;;;;19.13;15.13;;;;;;;;;;5094079;28;20070;-77
2021/11/14 04:04:26;;;;;;;19.48;15.43;;;;;;;;;;5093288;28;20032;-77
2021/11/14 04:06:52;;;;;;;18.13;14.95;;;;;;;;;;5093845;28;20400;-76
2021/11/14 04:09:18;;;;;;;19.10;14.85;;;;;;;;;;5087019;28;20484;-77
2021/11/14 04:11:44;;;;;;;19.40;15.40;;;;;;;;;;5093727;28;20028;-77
2021/11/14 04:14:10;;;;;;;20.55;15.35;;;;;;;;;;5093684;28;20035;-77
2021/11/14 04:16:36;;;;;;;18.45;15.70;;;;;;;;;;5093458;28;20031;-77
2021/11/14 04:19:03;;;;;;;19.05;15.77;;;;;;;;;;5089054;28;20103;-77
2021/11/14 04:21:30;;;;;;;18.58;14.85;;;;;;;;;;5073580;28;20125;-76
2021/11/14 04:23:57;;;;;;;21.25;14.85;;;;;;;;;;5073492;28;20083;-76
2021/11/14 04:26:23;;;;;;;19.02;14.88;;;;;;;;;;5072326;28;20441;-77
2021/11/14 04:28:49;;;;;;;19.70;15.30;;;;;;;;;;5084968;28;20387;-77
2021/11/14 04:31:15;;;;;;;23.20;15.95;;;;;;;;;;5094892;28;20053;-76
2021/11/14 04:33:41;;;;;;;19.05;14.85;;;;;;;;;;5094600;28;20088;-75
2021/11/14 04:36:07;;;;;;;21.05;16.15;;;;;;;;;;5096051;28;20028;-76
2021/11/14 04:38:35;;;;;;;20.65;15.73;;;;;;;;;;5097727;28;20053;-78
2021/11/14 04:41:02;;;;;;;22.75;16.30;;;;;;;;;;5079093;28;20032;-77
2021/11/14 04:43:28;;;;;;;18.88;15.65;;;;;;;;;;5076826;28;20036;-76
2021/11/14 04:45:54;;;;;;;23.08;17.30;;;;;;;;;;5072592;28;20103;-76
2021/11/14 04:48:22;;;;;;;22.42;17.30;;;;;;;;;;5073407;28;20063;-76
2021/11/14 04:50:48;;;;;;;24.25;17.60;;;;;;;;;;5093235;28;20030;-77
2021/11/14 04:53:14;;;;;;;22.20;17.02;;;;;;;;;;5065635;28;20033;-77
2021/11/14 04:55:40;;;;;;;24.02;17.88;;;;;;;;;;5074831;28;20086;-77
2021/11/14 04:58:07;;;;;;;23.42;18.02;;;;;;;;;;5075768;28;20027;-77
2021/11/14 05:00:38;;;;;;;24.33;17.65;;;;;;;;;;5092820;28;20016;-75
2021/11/14 05:03:04;;;;;;;25.50;18.25;;;;;;;;;;5094091;28;20024;-76
2021/11/14 05:05:30;;;;;;;21.00;17.17;;;;;;;;;;5095066;28;20020;-76
2021/11/14 05:07:56;;;;;;;22.58;17.63;;;;;;;;;;5085826;28;20032;-77
2021/11/14 05:10:22;;;;;;;22.60;17.52;;;;;;;;;;5093384;28;20032;-77
2021/11/14 05:12:48;;;;;;;23.90;18.48;;;;;;;;;;5092843;28;20027;-77
2021/11/14 05:15:15;;;;;;;24.67;18.23;;;;;;;;;;5093691;28;20024;-77
2021/11/14 05:17:41;;;;;;;26.65;19.08;;;;;;;;;;5094448;28;20029;-77
2021/11/14 05:20:07;;;;;;;25.75;19.67;;;;;;;;;;5090560;28;20036;-77
2021/11/14 05:22:33;;;;;;;23.13;18.02;;;;;;;;;;5089147;28;20029;-78
2021/11/14 05:24:59;;;;;;;22.55;18.25;;;;;;;;;;5073543;28;20621;-77
2021/11/14 05:27:25;;;;;;;26.20;19.63;;;;;;;;;;5052794;28;20053;-75
2021/11/14 05:29:51;;;;;;;25.25;19.52;;;;;;;;;;5073781;28;20028;-76
2021/11/14 05:32:18;;;;;;;26.90;19.63;;;;;;;;;;5092804;28;20028;-76
2021/11/14 05:34:44;;;;;;;26.83;19.98;;;;;;;;;;5092158;28;20433;-77
2021/11/14 05:37:10;;;;;;;26.77;20.20;;;;;;;;;;5091020;28;20028;-77
2021/11/14 05:39:36;;;;;;;25.73;19.25;;;;;;;;;;5081810;28;20028;-76
2021/11/14 05:42:02;;;;;;;26.13;20.23;;;;;;;;;;5053993;28;20028;-77
2021/11/14 05:44:28;;;;;;;29.77;20.15;;;;;;;;;;5071786;28;20039;-76
2021/11/14 05:46:54;;;;;;;24.98;19.45;;;;;;;;;;5072112;28;20099;-77
2021/11/14 05:49:20;;;;;;;27.50;21.05;;;;;;;;;;5083359;28;20047;-77
2021/11/14 05:51:46;;;;;;;27.67;20.50;;;;;;;;;;5092350;28;20532;-78
2021/11/14 05:54:12;;;;;;;28.48;20.83;;;;;;;;;;5078117;28;20031;-77
2021/11/14 05:56:38;;;;;;;26.30;20.27;;;;;;;;;;5075459;28;20028;-77
2021/11/14 06:01:37;;;;;;;26.83;20.70;;;;;;;;;;5075996;28;20025;-77
2021/11/14 06:04:10;;;;;;;28.48;21.38;;;;;;;;;;5076280;28;20044;-76
2021/11/14 06:06:36;;;;;;;30.02;21.17;;;;;;;;;;5060213;28;20032;-77
2021/11/14 06:09:02;;;;;;;26.65;19.48;;;;;;;;;;5081365;28;20032;-77
2021/11/14 06:11:28;;;;;;;27.25;20.17;;;;;;;;;;5095928;28;20028;-77
2021/11/14 06:13:54;;;;;;;28.83;20.23;;;;;;;;;;5098148;28;20109;-76
2021/11/14 06:16:21;;;;;;;29.80;20.35;;;;;;;;;;5097671;28;20031;-77
2021/11/14 06:18:47;;;;;;;27.33;20.60;;;;;;;;;;5088208;28;20036;-77
2021/11/14 06:21:13;;;;;;;33.10;20.20;;;;;;;;;;5075992;28;20037;-76
2021/11/14 06:23:39;;;;;;;26.35;20.25;;;;;;;;;;5075261;28;20508;-76
2021/11/14 06:26:05;;;;;;;29.02;21.60;;;;;;;;;;5074555;28;20478;-76
2021/11/14 06:28:32;;;;;;;31.05;21.40;;;;;;;;;;5075440;28;20063;-76
2021/11/14 06:30:58;;;;;;;28.05;20.33;;;;;;;;;;5072954;28;20025;-77
2021/11/14 06:33:24;;;;;;;29.33;20.35;;;;;;;;;;5074265;28;20388;-77
2021/11/14 06:35:50;;;;;;;26.52;19.33;;;;;;;;;;5074036;28;20477;-77
2021/11/14 06:38:16;;;;;;;31.35;20.98;;;;;;;;;;5074837;28;20496;-77
2021/11/14 06:40:42;;;;;;;25.80;19.40;;;;;;;;;;5075043;28;20024;-76
2021/11/14 06:43:08;;;;;;;29.52;21.17;;;;;;;;;;5056192;28;20028;-77
2021/11/14 06:45:34;;;;;;;26.95;20.52;;;;;;;;;;5074003;28;20056;-77
2021/11/14 06:48:01;;;;;;;29.48;21.88;;;;;;;;;;5075001;28;20052;-77
2021/11/14 06:50:29;;;;;;;31.35;22.52;;;;;;;;;;5072851;28;20025;-77
2021/11/14 06:52:55;;;;;;;31.70;21.50;;;;;;;;;;5075311;28;20024;-79
2021/11/14 06:55:24;;;;;;;30.95;22.27;;;;;;;;;;5074636;28;20583;-77
2021/11/14 06:57:50;;;;;;;29.98;21.00;;;;;;;;;;5076563;28;20103;-78
2021/11/14 07:00:18;;;;;;;32.97;23.38;;;;;;;;;;5065872;28;20025;-79
2021/11/14 07:02:44;;;;;;;32.97;23.42;;;;;;;;;;5075044;28;20032;-78
2021/11/14 07:05:10;;;;;;;32.15;22.73;;;;;;;;;;5073825;28;20043;-78
2021/11/14 07:07:36;;;;;;;35.28;22.27;;;;;;;;;;5058201;28;20126;-77
2021/11/14 07:10:04;;;;;;;31.83;21.95;;;;;;;;;;5094172;28;20032;-77
2021/11/14 07:12:30;;;;;;;31.70;22.48;;;;;;;;;;5095174;28;20036;-77
2021/11/14 07:14:56;;;;;;;32.38;21.75;;;;;;;;;;5094539;28;20543;-77
2021/11/14 07:17:24;;;;;;;31.45;22.15;;;;;;;;;;5095928;28;20031;-78
2021/11/14 07:19:50;;;;;;;33.70;22.33;;;;;;;;;;5079857;28;20401;-78
2021/11/14 07:22:16;;;;;;;36.72;24.77;;;;;;;;;;5075461;28;20037;-77
2021/11/14 07:24:42;;;;;;;37.38;24.77;;;;;;;;;;5074242;28;20096;-78
2021/11/14 07:27:08;;;;;;;37.83;25.13;;;;;;;;;;5075119;28;20024;-78
2021/11/14 07:29:34;;;;;;;35.97;24.73;;;;;;;;;;5076499;28;20037;-77
2021/11/14 07:32:00;;;;;;;36.88;23.70;;;;;;;;;;5075722;28;20154;-78
2021/11/14 07:34:26;;;;;;;32.13;22.33;;;;;;;;;;5075082;28;20029;-78
2021/11/14 07:36:52;;;;;;;29.85;20.73;;;;;;;;;;5075575;28;20063;-77
2021/11/14 07:39:18;;;;;;;26.08;19.08;;;;;;;;;;5081162;28;20024;-78
2021/11/14 07:41:45;;;;;;;27.58;18.58;;;;;;;;;;5074554;28;20562;-78
2021/11/14 07:44:11;;;;;;;29.60;20.23;;;;;;;;;;5082694;28;20034;-77
2021/11/14 07:46:37;;;;;;;28.33;19.00;;;;;;;;;;5094446;28;20031;-78
2021/11/14 07:49:03;;;;;;;25.27;18.05;;;;;;;;;;5068310;28;20085;-78
2021/11/14 07:51:30;;;;;;;27.88;18.40;;;;;;;;;;5075914;28;20036;-76
2021/11/14 07:53:56;;;;;;;27.13;18.58;;;;;;;;;;5075421;28;20029;-77
2021/11/14 07:56:22;;;;;;;28.63;19.63;;;;;;;;;;5057414;28;20489;-80
2021/11/14 07:58:48;;;;;;;30.83;19.70;;;;;;;;;;5076470;28;20091;-77
2021/11/14 08:01:14;;;;;;;28.70;19.52;;;;;;;;;;5076482;28;20025;-78
2021/11/14 08:03:40;;;;;;;27.92;17.73;;;;;;;;;;5054814;28;20036;-78
2021/11/14 08:06:07;;;;;;;31.42;18.45;;;;;;;;;;5073749;28;20047;-77
2021/11/14 08:08:33;;;;;;;26.00;17.58;;;;;;;;;;5075458;28;20029;-78
2021/11/14 08:10:59;;;;;;;26.25;17.38;;;;;;;;;;5074262;28;20442;-77
2021/11/14 08:13:25;;;;;;;23.15;17.52;;;;;;;;;;5073786;28;20385;-77
2021/11/14 08:15:52;;;;;;;28.02;17.80;;;;;;;;;;5072238;28;20021;-77
2021/11/14 08:18:18;;;;;;;30.25;19.92;;;;;;;;;;5079507;28;20472;-78
2021/11/14 08:20:44;;;;;;;26.85;17.75;;;;;;;;;;5081982;28;20039;-77
2021/11/14 08:23:11;;;;;;;26.80;16.25;;;;;;;;;;5074542;28;20036;-79
2021/11/14 08:25:37;;;;;;;22.25;15.68;;;;;;;;;;5077609;28;20032;-78
2021/11/14 08:28:04;;;;;;;22.23;16.52;;;;;;;;;;5076044;28;20036;-78
2021/11/14 08:30:30;;;;;;;22.85;17.02;;;;;;;;;;5065128;28;20031;-77
2021/11/14 08:32:56;;;;;;;26.58;17.00;;;;;;;;;;5055589;28;20032;-77
2021/11/14 08:35:23;;;;;;;24.15;17.92;;;;;;;;;;5072880;28;20448;-78
2021/11/14 08:37:50;;;;;;;24.63;17.75;;;;;;;;;;5073341;28;20374;-77
2021/11/14 08:40:16;;;;;;;24.77;17.45;;;;;;;;;;5093195;28;20036;-77
2021/11/14 08:42:42;;;;;;;23.23;16.90;;;;;;;;;;5094162;28;20511;-78
2021/11/14 08:45:09;;;;;;;23.38;17.10;;;;;;;;;;5091990;28;20028;-77
2021/11/14 08:47:35;;;;;;;21.67;15.82;;;;;;;;;;5093032;28;20507;-77
2021/11/14 08:50:02;;;;;;;21.67;16.08;;;;;;;;;;5091374;28;20477;-77
2021/11/14 08:52:29;;;;;;;24.23;16.80;;;;;;;;;;5089894;28;20604;-77
2021/11/14 08:54:55;;;;;;;22.70;16.60;;;;;;;;;;5054202;28;20016;-77
2021/11/14 08:57:21;;;;;;;24.83;17.05;;;;;;;;;;5072209;28;20028;-78
2021/11/14 08:59:47;;;;;;;23.13;16.20;;;;;;;;;;5091385;28;20036;-78
2021/11/14 09:02:13;;;;;;;24.00;17.85;;;;;;;;;;5092652;28;20040;-78
2021/11/14 09:04:40;;;;;;;22.75;16.70;;;;;;;;;;5091779;28;20123;-77
2021/11/14 09:07:06;;;;;;;21.92;15.95;;;;;;;;;;5092393;28;20036;-77
2021/11/14 09:09:32;;;;;;;23.58;16.70;;;;;;;;;;5080758;28;20058;-77
2021/11/14 09:11:58;;;;;;;24.42;17.10;;;;;;;;;;5092385;28;20036;-77
2021/11/14 09:14:25;;;;;;;22.02;15.85;;;;;;;;;;5073974;28;20093;-77
2021/11/14 09:16:51;;;;;;;20.73;15.13;;;;;;;;;;5092671;28;20035;-77
2021/11/14 09:19:18;;;;;;;23.90;16.30;;;;;;;;;;5087127;28;20036;-77
2021/11/14 09:21:44;;;;;;;21.05;15.13;;;;;;;;;;5089932;28;20093;-77
2021/11/14 09:24:11;;;;;;;25.40;15.68;;;;;;;;;;5079884;28;20107;-77
2021/11/14 09:26:37;;;;;;;22.90;15.10;;;;;;;;;;5072493;28;20499;-77
2021/11/14 09:29:04;;;;;;;21.35;15.48;;;;;;;;;;5077842;28;20400;-77
2021/11/14 09:31:30;;;;;;;23.02;15.20;;;;;;;;;;5096823;28;20055;-77
2021/11/14 09:33:57;;;;;;;21.20;15.20;;;;;;;;;;5078263;28;20041;-77
2021/11/14 09:36:26;;;;;;;21.05;15.25;;;;;;;;;;5076498;28;20432;-78
2021/11/14 09:38:52;;;;;;;20.52;15.27;;;;;;;;;;5083753;28;20115;-80
2021/11/14 09:41:19;;;;;;;19.52;14.55;;;;;;;;;;5097478;28;20024;-77
2021/11/14 09:43:45;;;;;;;21.75;14.38;;;;;;;;;;5078206;28;20031;-78
2021/11/14 09:46:11;;;;;;;19.08;14.35;;;;;;;;;;5096262;28;20024;-78
2021/11/14 09:48:37;;;;;;;21.20;13.85;;;;;;;;;;5090620;28;20078;-78
2021/11/14 09:51:03;;;;;;;20.27;14.55;;;;;;;;;;5076942;28;20050;-78
2021/11/14 09:53:31;;;;;;;18.10;13.75;;;;;;;;;;5076615;28;20035;-78
2021/11/14 09:55:58;;;;;;;18.17;14.02;;;;;;;;;;5076396;28;20043;-78
2021/11/14 09:58:24;;;;;;;21.05;14.05;;;;;;;;;;5082338;28;20396;-78
2021/11/14 10:00:51;;;;;;;16.88;13.07;;;;;;;;;;5097139;28;20024;-78
2021/11/14 10:03:17;;;;;;;15.48;11.43;;;;;;;;;;5097557;28;20043;-78
2021/11/14 10:05:43;;;;;;;21.20;12.90;;;;;;;;;;5096867;28;20051;-81
2021/11/14 10:08:10;;;;;;;14.73;11.95;;;;;;;;;;5092420;28;20056;-78
2021/11/14 10:10:39;;;;;;;16.88;12.10;;;;;;;;;;5077826;28;20032;-78
2021/11/14 10:13:16;;;;;;;16.25;12.50;;;;;;;;;;5076609;28;20072;-78
2021/11/14 10:15:43;;;;;;;17.23;12.20;;;;;;;;;;5077128;28;20070;-78
2021/11/14 10:18:10;;;;;;;15.15;11.50;;;;;;;;;;5082579;28;20369;-78
2021/11/14 10:20:36;;;;;;;13.60;10.27;;;;;;;;;;5079640;28;20029;-78
2021/11/14 10:23:10;;;;;;;14.20;11.13;;;;;;;;;;5079997;28;20020;-80
2021/11/14 10:25:37;;;;;;;15.73;11.20;;;;;;;;;;5063850;28;20081;-80
2021/11/14 10:28:04;;;;;;;16.27;11.35;;;;;;;;;;5066410;28;20024;-78
2021/11/14 10:30:31;;;;;;;14.45;11.82;;;;;;;;;;5078985;28;20059;-78
2021/11/14 10:33:03;;;;;;;15.55;11.80;;;;;;;;;;5073461;28;20043;-78
2021/11/14 10:35:29;;;;;;;17.33;11.52;;;;;;;;;;5078084;28;20021;-78
2021/11/14 10:37:58;;;;;;;14.23;10.75;;;;;;;;;;5078409;28;20039;-78
2021/11/14 10:40:28;;;;;;;16.77;12.00;;;;;;;;;;5101361;28;20024;-78
2021/11/14 10:43:00;;;;;;;17.33;12.13;;;;;;;;;;5101781;28;20028;-78
2021/11/14 10:45:26;;;;;;;17.38;12.38;;;;;;;;;;5096628;28;20031;-78
2021/11/14 10:47:54;;;;;;;18.52;12.02;;;;;;;;;;5097387;28;20035;-78
2021/11/14 10:50:21;;;;;;;17.27;12.50;;;;;;;;;;5077497;28;20039;-78
2021/11/14 10:52:51;;;;;;;18.67;12.98;;;;;;;;;;5077814;28;20099;-79
2021/11/14 10:55:17;;;;;;;18.75;12.52;;;;;;;;;;5076706;28;20054;-78
2021/11/14 10:57:43;;;;;;;19.52;13.65;;;;;;;;;;5059474;28;20032;-78
2021/11/14 11:00:11;;;;;;;18.05;12.68;;;;;;;;;;5095042;28;20028;-78
2021/11/14 11:02:44;;;;;;;18.77;13.68;;;;;;;;;;5097864;28;20047;-80
2021/11/14 11:05:17;;;;;;;25.98;17.77;;;;;;;;;;5097245;28;20358;-78
2021/11/14 11:08:00;;;;;;;23.58;16.98;;;;;;;;;;5098329;28;20434;-80
2021/11/14 11:10:30;;;;;;;22.05;15.18;;;;;;;;;;5079202;28;20554;-78
2021/11/14 11:12:56;;;;;;;19.30;13.60;;;;;;;;;;5060857;28;20039;-80
2021/11/14 11:15:22;;;;;;;20.13;14.07;;;;;;;;;;5076974;28;20077;-78
2021/11/14 11:17:50;;;;;;;21.95;16.33;;;;;;;;;;5059430;28;20029;-78
2021/11/14 11:20:24;;;;;;;20.35;14.32;;;;;;;;;;5085321;28;20032;-78
2021/11/14 11:22:51;;;;;;;18.85;13.02;;;;;;;;;;5077752;28;20029;-78
2021/11/14 11:25:33;;;;;;;22.83;13.80;;;;;;;;;;5076655;28;20489;-78
2021/11/14 11:27:59;;;;;;;20.40;13.57;;;;;;;;;;5077222;28;20089;-78
2021/11/14 11:30:30;;;;;;;16.80;12.45;;;;;;;;;;5095542;28;20028;-78
2021/11/14 11:32:56;;;;;;;20.35;13.48;;;;;;;;;;5097919;28;20028;-78
2021/11/14 11:35:22;;;;;;;18.52;11.88;;;;;;;;;;5097545;28;20079;-78
2021/11/14 11:37:48;;;;;;;17.40;12.23;;;;;;;;;;5097663;28;20091;-78
2021/11/14 11:40:14;;;;;;;16.17;11.93;;;;;;;;;;5082769;28;20468;-78
2021/11/14 11:42:42;;;;;;;17.73;12.57;;;;;;;;;;5060131;28;20036;-78
2021/11/14 11:45:09;;;;;;;18.55;12.70;;;;;;;;;;5078539;28;20025;-78
2021/11/14 11:47:39;;;;;;;20.67;13.73;;;;;;;;;;5078852;28;20096;-78
2021/11/14 11:50:06;;;;;;;20.00;14.27;;;;;;;;;;5079317;28;20092;-78
2021/11/14 11:52:40;;;;;;;24.50;16.77;;;;;;;;;;5078702;28;20514;-78
2021/11/14 11:55:23;;;;;;;21.63;14.77;;;;;;;;;;5077910;28;20031;-78
2021/11/14 11:57:50;;;;;;;19.73;13.80;;;;;;;;;;5078561;28;20025;-78
2021/11/14 12:00:16;;;;;;;20.35;13.90;;;;;;;;;;5081135;28;20028;-78
2021/11/14 12:02:43;;;;;;;24.40;14.13;;;;;;;;;;5079396;28;20020;-78
2021/11/14 12:05:11;;;;;;;20.33;12.70;;;;;;;;;;5078605;28;20039;-78
2021/11/14 12:07:44;;;;;;;18.80;13.38;;;;;;;;;;5079965;28;20029;-78
2021/11/14 12:10:17;;;;;;;22.00;14.25;;;;;;;;;;5082205;28;20050;-78
2021/11/14 12:12:50;;;;;;;23.23;14.50;;;;;;;;;;5081306;28;20044;-78
2021/11/14 12:15:16;;;;;;;;;;;;;;;;;;5062363;28;20020;-78
2021/11/14 12:17:56;;;;;;;23.08;14.75;;;;;;;;;;5079873;28;20388;-78
2021/11/14 12:20:25;;;;;;;21.85;14.05;;;;;;;;;;5096066;28;20583;-78
2021/11/14 12:22:53;;;;;;;26.05;15.40;;;;;;;;;;5092672;28;20379;-78
2021/11/14 12:25:22;;;;;;;26.95;15.20;;;;;;;;;;5078631;28;20031;-78
2021/11/14 12:27:56;;;;;;;22.70;15.27;;;;;;;;;;5089889;28;20020;-78
2021/11/14 12:30:22;;;;;;;26.40;15.38;;;;;;;;;;5078805;28;20021;-78
2021/11/14 12:32:50;;;;;;;23.08;14.23;;;;;;;;;;5078879;28;20070;-78
2021/11/14 12:35:20;;;;;;;23.52;15.30;;;;;;;;;;5078084;28;20046;-78
2021/11/14 12:37:47;;;;;;;27.65;16.55;;;;;;;;;;5078643;28;20472;-78
2021/11/14 12:40:15;;;;;;;24.52;15.27;;;;;;;;;;5082166;28;20033;-78
2021/11/14 12:42:41;;;;;;;20.75;14.18;;;;;;;;;;5059052;28;20037;-78
2021/11/14 12:45:07;;;;;;;25.23;15.93;;;;;;;;;;5073073;28;20519;-76
2021/11/14 12:47:36;;;;;;;26.75;17.30;;;;;;;;;;5071684;28;20044;-76
2021/11/14 12:50:05;;;;;;;24.23;15.48;;;;;;;;;;5087594;28;20059;-76
2021/11/14 12:52:33;;;;;;;24.92;16.52;;;;;;;;;;5089300;28;20029;-76
2021/11/14 12:55:02;;;;;;;26.90;17.25;;;;;;;;;;5072384;28;20082;-76
2021/11/14 12:57:39;;;;;;;29.00;17.17;;;;;;;;;;5072131;28;20051;-73
2021/11/14 13:00:06;;;;;;;29.80;17.42;;;;;;;;;;5087027;28;20028;-73
2021/11/14 13:02:32;;;;;;;25.58;16.60;;;;;;;;;;5049165;28;20032;-73
2021/11/14 13:05:08;;;;;;;28.38;17.27;;;;;;;;;;5052287;28;20055;-72
2021/11/14 13:07:36;;;;;;;25.92;16.13;;;;;;;;;;5071695;28;20055;-74
2021/11/14 13:10:03;;;;;;;27.02;16.98;;;;;;;;;;5070838;28;20082;-72
2021/11/14 13:12:29;;;;;;;24.15;15.75;;;;;;;;;;5071519;28;20036;-74
2021/11/14 13:14:57;;;;;;;27.23;17.80;;;;;;;;;;5071015;28;20074;-74
2021/11/14 13:17:23;;;;;;;27.15;16.77;;;;;;;;;;5071689;28;20497;-74
2021/11/14 13:19:50;;;;;;;27.65;16.92;;;;;;;;;;5088852;28;20028;-73
2021/11/14 13:22:20;;;;;;;30.23;16.85;;;;;;;;;;5090762;28;20024;-72
2021/11/14 13:24:50;;;;;;;27.85;16.23;;;;;;;;;;5070981;28;20021;-73
2021/11/14 13:27:18;;;;;;;28.50;16.83;;;;;;;;;;5071225;28;20538;-73
2021/11/14 13:29:47;;;;;;;25.65;16.27;;;;;;;;;;5072223;28;20061;-74
2021/11/14 13:32:14;;;;;;;22.67;14.73;;;;;;;;;;5071166;28;20033;-73
2021/11/14 13:34:42;;;;;;;21.35;14.25;;;;;;;;;;5070963;28;20053;-73
2021/11/14 13:37:10;;;;;;;23.50;15.45;;;;;;;;;;5072582;28;20056;-73
2021/11/14 13:39:47;;;;;;;24.67;15.13;;;;;;;;;;5078240;28;20025;-73
2021/11/14 13:42:16;;;;;;;25.48;15.60;;;;;;;;;;5071689;28;20028;-73
2021/11/14 13:45:04;;;;;;;26.58;16.10;;;;;;;;;;5070831;28;20013;-74
2021/11/14 13:47:35;;;;;;;22.67;14.93;;;;;;;;;;5080938;28;20028;-74
2021/11/14 13:50:02;;;;;;;20.98;14.20;;;;;;;;;;5072959;28;20493;-74
2021/11/14 13:52:28;;;;;;;23.77;15.43;;;;;;;;;;5053192;28;20058;-75
2021/11/14 13:54:59;;;;;;;25.75;15.13;;;;;;;;;;5070743;28;20091;-75
2021/11/14 13:57:27;;;;;;;25.80;14.55;;;;;;;;;;5071516;28;20560;-75
2021/11/14 13:59:54;;;;;;;21.85;13.98;;;;;;;;;;5087974;28;20125;-75
2021/11/14 14:02:20;;;;;;;24.52;14.60;;;;;;;;;;5091524;28;20027;-75
2021/11/14 14:05:06;;;;;;;27.33;14.15;;;;;;;;;;5090794;28;20031;-75
2021/11/14 14:07:33;;;;;;;29.20;16.90;;;;;;;;;;5091325;28;20036;-74
2021/11/14 14:10:19;;;;;;;30.73;17.73;;;;;;;;;;5086302;28;20574;-74
2021/11/14 14:12:56;;;;;;;25.08;14.05;;;;;;;;;;5091326;28;20121;-75
2021/11/14 14:15:22;;;;;;;21.02;14.27;;;;;;;;;;5093606;28;20027;-74
2021/11/14 14:17:51;;;;;;;24.73;14.32;;;;;;;;;;5075763;28;20102;-74
2021/11/14 14:20:17;;;;;;;23.17;14.02;;;;;;;;;;5082702;28;20036;-75